createdAt,value
2023-02-14T00:02:21.549Z,12.70
2023-02-14T00:04:50.124Z,14.00
2023-02-14T00:07:18.688Z,11.70
2023-02-14T00:09:47.281Z,11.60
2023-02-14T00:12:15.862Z,11.30
2023-02-14T00:15:02.831Z,9.90
2023-02-14T00:17:31.269Z,11.00
2023-02-14T00:20:00.178Z,10.90
2023-02-14T00:22:28.747Z,12.90
2023-02-14T00:24:58.385Z,10.70
2023-02-14T00:27:29.848Z,10.80
2023-02-14T00:30:03.346Z,11.10
2023-02-14T00:32:32.041Z,11.50
2023-02-14T00:35:00.951Z,12.70
2023-02-14T00:37:29.349Z,10.60
2023-02-14T00:39:57.957Z,13.50
2023-02-14T00:42:27.300Z,9.40
2023-02-14T00:44:55.917Z,9.00
2023-02-14T00:47:24.430Z,11.10
2023-02-14T00:49:52.945Z,12.10
2023-02-14T00:52:21.396Z,11.70
2023-02-14T00:54:49.757Z,9.80
2023-02-14T00:57:18.258Z,9.60
2023-02-14T00:59:46.636Z,11.40
2023-02-14T01:02:15.036Z,9.40
2023-02-14T01:04:43.423Z,9.10
2023-02-14T01:07:11.969Z,8.50
2023-02-14T01:09:40.496Z,12.10
2023-02-14T01:12:08.944Z,6.90
2023-02-14T01:14:38.747Z,8.60
2023-02-14T01:17:07.199Z,9.40
2023-02-14T01:19:36.931Z,11.50
2023-02-14T01:22:05.470Z,12.20
2023-02-14T01:24:34.146Z,8.80
2023-02-14T01:27:02.557Z,10.60
2023-02-14T01:29:30.969Z,9.10
2023-02-14T01:31:59.472Z,10.80
2023-02-14T01:34:27.897Z,9.20
2023-02-14T01:36:56.332Z,12.50
2023-02-14T01:39:24.837Z,11.20
2023-02-14T01:41:56.053Z,9.00
2023-02-14T01:44:33.757Z,8.80
2023-02-14T01:47:05.307Z,10.30
2023-02-14T01:49:38.766Z,14.00
2023-02-14T01:52:20.066Z,12.10
2023-02-14T01:55:10.631Z,13.00
2023-02-14T02:00:39.407Z,14.00
2023-02-14T02:03:09.153Z,10.50
2023-02-14T02:05:40.618Z,12.10
2023-02-14T02:08:09.161Z,10.80
2023-02-14T02:10:38.027Z,10.40
2023-02-14T02:13:08.851Z,12.80
2023-02-14T02:15:51.572Z,13.40
2023-02-14T02:18:52.137Z,11.20
2023-02-14T02:21:32.851Z,9.00
2023-02-14T02:24:12.648Z,15.20
2023-02-14T02:27:03.968Z,15.50
2023-02-14T02:30:13.148Z,11.70
2023-02-14T02:32:47.907Z,12.40
2023-02-14T02:35:29.386Z,10.70
2023-02-14T02:38:07.578Z,13.30
2023-02-14T02:40:49.192Z,14.10
2023-02-14T02:43:49.993Z,11.70
2023-02-14T02:46:44.727Z,12.90
2023-02-14T02:50:04.100Z,12.30
2023-02-14T02:53:04.246Z,13.00
2023-02-14T02:56:14.067Z,12.80
2023-02-14T02:59:01.367Z,17.10
2023-02-14T03:01:34.714Z,15.10
2023-02-14T03:04:26.606Z,15.10
2023-02-14T03:06:56.669Z,15.40
2023-02-14T03:09:28.468Z,12.30
2023-02-14T03:12:35.549Z,15.20
2023-02-14T03:15:23.004Z,12.80
2023-02-14T03:18:07.831Z,12.20
2023-02-14T03:20:48.347Z,10.90
2023-02-14T03:26:39.702Z,15.50
2023-02-14T03:29:36.241Z,15.60
2023-02-14T03:32:23.096Z,14.20
2023-02-14T03:34:51.592Z,13.10
2023-02-14T03:37:43.480Z,11.80
2023-02-14T03:40:39.463Z,13.90
2023-02-14T03:43:12.387Z,13.10
2023-02-14T03:45:51.959Z,16.50
2023-02-14T03:48:24.308Z,14.60
2023-02-14T03:50:54.617Z,14.50
2023-02-14T03:53:27.655Z,14.10
2023-02-14T03:56:09.130Z,14.10
2023-02-14T03:58:48.092Z,13.00
2023-02-14T04:01:33.639Z,13.80
2023-02-14T04:04:04.497Z,13.10
2023-02-14T04:06:33.102Z,14.20
2023-02-14T04:09:01.775Z,13.50
2023-02-14T04:11:35.326Z,13.90
2023-02-14T04:14:04.033Z,17.30
2023-02-14T04:16:52.577Z,15.60
2023-02-14T04:19:23.716Z,13.40
2023-02-14T04:21:53.295Z,13.40
2023-02-14T04:24:21.805Z,17.60
2023-02-14T04:27:10.913Z,10.80
2023-02-14T04:29:43.712Z,14.50
2023-02-14T04:32:15.152Z,15.60
2023-02-14T04:34:44.370Z,13.90
2023-02-14T04:37:14.055Z,11.90
2023-02-14T04:39:42.550Z,11.90
2023-02-14T04:42:11.596Z,13.50
2023-02-14T04:44:40.214Z,12.30
2023-02-14T04:47:08.762Z,16.20
2023-02-14T04:49:37.463Z,15.60
2023-02-14T04:52:06.135Z,14.30
2023-02-14T04:54:34.853Z,14.00
2023-02-14T04:57:03.246Z,14.20
2023-02-14T04:59:31.981Z,13.30
2023-02-14T05:02:00.665Z,14.50
2023-02-14T05:04:29.277Z,16.30
2023-02-14T05:06:57.829Z,15.90
2023-02-14T05:09:26.348Z,15.20
2023-02-14T05:11:54.866Z,13.60
2023-02-14T05:14:23.329Z,13.50
2023-02-14T05:16:51.798Z,15.70
2023-02-14T05:19:20.408Z,14.70
2023-02-14T05:21:51.215Z,13.30
2023-02-14T05:24:19.617Z,13.80
2023-02-14T05:26:48.200Z,15.00
2023-02-14T05:29:16.926Z,14.40
2023-02-14T05:31:46.439Z,13.90
2023-02-14T05:34:15.027Z,12.10
2023-02-14T05:36:43.633Z,15.60
2023-02-14T05:39:14.798Z,13.70
2023-02-14T05:41:43.339Z,17.50
2023-02-14T05:44:11.833Z,13.60
2023-02-14T05:46:40.512Z,16.20
2023-02-14T05:49:08.890Z,16.80
2023-02-14T05:51:37.369Z,17.00
2023-02-14T05:54:06.054Z,17.20
2023-02-14T05:56:34.537Z,17.70
2023-02-14T05:59:03.155Z,17.30
2023-02-14T06:01:31.616Z,17.90
2023-02-14T06:04:00.222Z,19.30
2023-02-14T06:06:28.798Z,16.40
2023-02-14T06:08:57.396Z,17.60
2023-02-14T06:11:25.943Z,17.40
2023-02-14T06:13:54.391Z,17.30
2023-02-14T06:16:23.026Z,14.10
2023-02-14T06:18:51.466Z,15.10
2023-02-14T06:21:19.868Z,13.80
2023-02-14T06:23:48.425Z,19.10
2023-02-14T06:26:16.920Z,12.30
2023-02-14T06:28:45.237Z,16.90
2023-02-14T06:31:17.912Z,15.00
2023-02-14T06:33:46.437Z,17.40
2023-02-14T06:36:15.149Z,14.50
2023-02-14T06:38:43.884Z,17.70
2023-02-14T06:41:12.829Z,16.00
2023-02-14T06:43:42.009Z,18.20
2023-02-14T06:46:10.940Z,18.20
2023-02-14T06:48:39.640Z,15.10
2023-02-14T06:51:08.512Z,17.60
2023-02-14T06:53:37.478Z,17.30
2023-02-14T06:56:06.412Z,14.00
2023-02-14T06:58:35.776Z,18.50
2023-02-14T07:01:05.644Z,15.50
2023-02-14T07:06:03.827Z,14.80
2023-02-14T07:08:32.591Z,14.20
2023-02-14T07:11:01.702Z,16.40
2023-02-14T07:13:31.106Z,20.00
2023-02-14T07:16:00.729Z,14.40
2023-02-14T07:18:30.030Z,13.60
2023-02-14T07:20:59.669Z,13.50
2023-02-14T07:23:31.477Z,14.50
2023-02-14T07:26:01.689Z,14.30
2023-02-14T07:28:34.415Z,14.40
2023-02-14T07:31:08.204Z,15.20
2023-02-14T07:33:44.449Z,13.90
2023-02-14T07:36:52.476Z,14.20
2023-02-14T07:39:37.165Z,12.40
2023-02-14T07:42:39.438Z,17.60
2023-02-14T07:45:22.020Z,15.30
2023-02-14T07:47:55.488Z,14.60
2023-02-14T07:50:24.895Z,12.70
2023-02-14T07:52:54.111Z,13.10
2023-02-14T07:55:26.815Z,15.10
2023-02-14T07:57:57.846Z,17.10
2023-02-14T08:00:27.634Z,14.40
2023-02-14T08:02:56.651Z,17.00
2023-02-14T08:05:25.498Z,16.50
2023-02-14T08:08:09.553Z,16.00
2023-02-14T08:11:00.685Z,16.10
2023-02-14T08:13:30.617Z,15.40
2023-02-14T08:16:06.152Z,16.50
2023-02-14T08:18:41.295Z,18.80
2023-02-14T08:21:11.914Z,16.50
2023-02-14T08:23:40.659Z,13.70
2023-02-14T08:26:09.747Z,16.50
2023-02-14T08:28:39.349Z,15.30
2023-02-14T08:31:09.055Z,16.60
2023-02-14T08:33:38.305Z,15.10
2023-02-14T08:36:07.802Z,15.80
2023-02-14T08:38:36.636Z,17.90
2023-02-14T08:41:08.327Z,15.70
2023-02-14T08:43:38.792Z,17.40
2023-02-14T08:46:07.728Z,21.40
2023-02-14T08:48:39.219Z,15.90
2023-02-14T08:51:09.645Z,14.70
2023-02-14T08:53:40.203Z,17.10
2023-02-14T08:56:12.262Z,18.20
2023-02-14T08:58:42.003Z,17.40
2023-02-14T09:01:13.505Z,18.10
2023-02-14T09:03:42.526Z,15.50
2023-02-14T09:06:15.056Z,18.30
2023-02-14T09:08:45.356Z,19.30
2023-02-14T09:11:18.959Z,16.10
2023-02-14T09:13:48.645Z,17.80
2023-02-14T09:16:19.632Z,15.50
2023-02-14T09:18:49.506Z,16.10
2023-02-14T09:21:21.384Z,15.30
2023-02-14T09:23:50.232Z,16.60
2023-02-14T09:26:22.004Z,13.50
2023-02-14T09:28:51.094Z,16.80
2023-02-14T09:31:22.822Z,16.00
2023-02-14T09:33:52.668Z,14.80
2023-02-14T09:36:21.871Z,16.60
2023-02-14T09:38:50.517Z,16.30
2023-02-14T09:41:32.033Z,14.10
2023-02-14T09:44:39.612Z,17.00
2023-02-14T09:47:21.299Z,15.70
2023-02-14T09:49:56.613Z,14.70
2023-02-14T09:52:48.106Z,14.70
2023-02-14T09:55:31.808Z,14.80
2023-02-14T09:58:18.613Z,14.30
2023-02-14T10:01:23.931Z,17.10
2023-02-14T10:04:32.838Z,12.80
2023-02-14T10:07:55.497Z,16.00
2023-02-14T10:10:39.522Z,16.00
2023-02-14T10:14:56.198Z,16.90
2023-02-14T10:17:35.232Z,14.80
2023-02-14T10:20:46.800Z,15.00
2023-02-14T10:23:43.226Z,13.60
2023-02-14T10:30:33.931Z,16.20
2023-02-14T10:37:18.877Z,15.30
2023-02-14T10:43:32.681Z,18.20
2023-02-14T10:46:09.504Z,16.20
2023-02-14T10:48:47.767Z,19.30
2023-02-14T10:51:33.846Z,18.50
2023-02-14T10:54:22.970Z,16.50
2023-02-14T10:57:03.376Z,15.00
2023-02-14T11:00:34.849Z,14.30
2023-02-14T11:06:47.727Z,17.00
2023-02-14T11:06:59.049Z,17.20
2023-02-14T11:09:44.871Z,18.40
2023-02-14T11:13:13.383Z,15.90
2023-02-14T11:28:31.349Z,15.10
2023-02-14T11:35:21.808Z,13.60
2023-02-14T11:37:54.651Z,16.00
2023-02-14T11:40:40.763Z,15.60
2023-02-14T11:43:56.465Z,17.30
2023-02-14T11:46:41.309Z,16.30
2023-02-14T11:50:29.901Z,16.40
2023-02-14T11:53:29.400Z,15.00
2023-02-14T11:56:21.355Z,15.20
2023-02-14T12:03:49.199Z,14.40
2023-02-14T12:10:42.312Z,16.80
2023-02-14T12:38:40.988Z,13.30
2023-02-14T12:41:33.750Z,14.80
2023-02-14T12:44:27.980Z,16.90
2023-02-14T12:47:32.288Z,15.00
2023-02-14T12:50:36.244Z,15.90
2023-02-14T12:53:22.181Z,15.00
2023-02-14T12:56:03.812Z,15.10
2023-02-14T12:58:36.187Z,12.40
2023-02-14T13:01:29.080Z,15.50
2023-02-14T13:04:44.413Z,15.60
2023-02-14T13:07:18.662Z,13.40
2023-02-14T13:10:13.029Z,15.90
2023-02-14T13:12:40.579Z,17.50
2023-02-14T13:15:41.987Z,16.20
2023-02-14T13:18:56.492Z,17.50
2023-02-14T13:27:27.971Z,16.50
2023-02-14T13:30:03.914Z,14.60
2023-02-14T13:32:39.711Z,14.30
2023-02-14T13:35:17.885Z,14.10
2023-02-14T13:44:03.208Z,13.90
2023-02-14T13:46:35.711Z,15.70
2023-02-14T13:49:37.402Z,17.20
2023-02-14T13:52:06.966Z,14.80
2023-02-14T13:54:48.159Z,18.40
2023-02-14T13:57:39.640Z,18.00
2023-02-14T14:00:17.855Z,18.70
2023-02-14T14:02:57.257Z,15.30
2023-02-14T14:05:33.104Z,15.80
2023-02-14T14:08:32.470Z,15.50
2023-02-14T14:11:10.683Z,15.90
2023-02-14T14:13:42.878Z,18.50
2023-02-14T14:16:21.884Z,19.30
2023-02-14T14:18:53.402Z,16.70
2023-02-14T14:21:30.974Z,17.20
2023-02-14T14:24:20.183Z,18.10
2023-02-14T14:27:12.926Z,19.90
2023-02-14T14:30:13.996Z,20.40
2023-02-14T14:32:42.593Z,19.40
2023-02-14T14:35:21.935Z,22.20
2023-02-14T14:37:54.809Z,22.10
2023-02-14T14:40:39.004Z,23.20
2023-02-14T14:43:14.663Z,25.80
2023-02-14T14:45:47.030Z,24.50
2023-02-14T14:48:39.435Z,24.50
2023-02-14T14:51:20.437Z,21.40
2023-02-14T14:56:25.487Z,24.20
2023-02-14T14:58:55.001Z,27.60
2023-02-14T15:01:40.782Z,25.40
2023-02-14T15:04:25.863Z,26.50
2023-02-14T15:06:57.822Z,25.20
2023-02-14T15:09:29.597Z,25.80
2023-02-14T15:12:20.206Z,22.60
2023-02-14T15:17:31.141Z,23.80
2023-02-14T15:20:05.204Z,24.70
2023-02-14T15:22:42.657Z,24.20
2023-02-14T15:25:17.468Z,25.50
2023-02-14T15:27:46.486Z,25.30
2023-02-14T15:30:26.974Z,25.50
2023-02-14T15:32:57.045Z,26.00
2023-02-14T15:35:29.556Z,25.80
2023-02-14T15:38:01.940Z,27.70
2023-02-14T15:40:33.672Z,30.50
2023-02-14T15:43:15.909Z,27.60
2023-02-14T15:45:48.170Z,29.60
2023-02-14T15:48:19.978Z,27.30
2023-02-14T15:50:53.047Z,28.60
2023-02-14T15:53:43.216Z,29.70
2023-02-14T15:56:14.763Z,30.40
2023-02-14T15:58:45.425Z,28.20
2023-02-14T16:01:14.305Z,26.50
2023-02-14T16:03:51.854Z,28.90
2023-02-14T16:07:03.159Z,26.50
2023-02-14T16:09:36.107Z,26.40
2023-02-14T16:12:30.835Z,25.40
2023-02-14T16:15:27.706Z,27.60
2023-02-14T16:18:08.285Z,29.80
2023-02-14T16:20:52.527Z,29.50
2023-02-14T16:23:24.496Z,25.90
2023-02-14T16:25:54.405Z,30.80
2023-02-14T16:28:23.362Z,28.70
2023-02-14T16:30:57.522Z,27.30
2023-02-14T16:33:31.178Z,30.80
2023-02-14T16:36:09.573Z,32.80
2023-02-14T16:38:43.338Z,28.00
2023-02-14T16:41:18.147Z,30.70
2023-02-14T16:43:47.795Z,31.80
2023-02-14T16:46:19.472Z,29.00
2023-02-14T16:48:52.877Z,29.70
2023-02-14T16:51:23.964Z,24.90
2023-02-14T16:53:54.256Z,27.60
2023-02-14T16:56:33.903Z,32.60
2023-02-14T16:59:02.464Z,32.20
2023-02-14T17:01:32.384Z,36.70
2023-02-14T17:04:01.314Z,29.40
2023-02-14T17:06:32.658Z,30.90
2023-02-14T17:09:07.950Z,30.80
2023-02-14T17:11:40.615Z,29.20
2023-02-14T17:14:14.353Z,29.40
2023-02-14T17:16:43.344Z,28.40
2023-02-14T17:19:12.221Z,34.30
2023-02-14T17:21:41.806Z,31.90
2023-02-14T17:24:11.547Z,32.50
2023-02-14T17:27:00.711Z,31.10
2023-02-14T17:29:34.717Z,33.30
2023-02-14T17:32:04.611Z,29.30
2023-02-14T17:34:35.466Z,31.10
2023-02-14T17:37:06.358Z,31.20
2023-02-14T17:39:38.900Z,31.20
2023-02-14T17:42:11.972Z,38.40
2023-02-14T17:44:41.758Z,31.30
2023-02-14T17:47:11.692Z,36.10
2023-02-14T17:50:05.891Z,37.40
2023-02-14T17:52:51.627Z,35.20
2023-02-14T17:55:28.298Z,32.40
2023-02-14T17:57:56.958Z,36.50
2023-02-14T18:00:25.950Z,34.00
2023-02-14T18:02:55.247Z,33.70
2023-02-14T18:05:25.265Z,35.30
2023-02-14T18:07:55.949Z,31.00
2023-02-14T18:10:24.546Z,36.20
2023-02-14T18:12:53.372Z,34.80
2023-02-14T18:15:23.007Z,34.80
2023-02-14T18:17:52.719Z,36.70
2023-02-14T18:20:21.861Z,37.60
2023-02-14T18:22:50.531Z,40.00
2023-02-14T18:25:19.818Z,35.40
2023-02-14T18:27:49.117Z,36.60
2023-02-14T18:30:18.402Z,37.80
2023-02-14T18:32:52.406Z,39.20
2023-02-14T18:35:24.953Z,38.10
2023-02-14T18:37:54.052Z,37.20
2023-02-14T18:40:25.651Z,40.00
2023-02-14T18:42:54.895Z,38.70
2023-02-14T18:45:23.460Z,35.30
2023-02-14T18:47:52.253Z,42.50
